Time;durP1;ratioP1;P1;durP2;ratioP2;P2;SDS_P1;SDS_P2;PMS_P1;PMS_P2;Temp;Humidity;BMP_temperature;BMP_pressure;BME280_temperature;BME280_humidity;BME280_pressure;Samples;Min_cycle;Max_cycle;Signal;HPM_P1;HPM_P2
2021/03/10 00:00:40;;;;;;;27.03;24.13;;;5.90;99.90;;;;;;5055472;28;20188;-66
2021/03/10 00:03:06;;;;;;;24.43;22.03;;;5.90;99.90;;;;;;5055564;28;20187;-66
2021/03/10 00:05:31;;;;;;;26.20;23.50;;;5.90;99.90;;;;;;5055658;28;20156;-66
2021/03/10 00:07:57;;;;;;;25.03;22.53;;;5.90;99.90;;;;;;5054487;28;20180;-66
2021/03/10 00:10:23;;;;;;;25.57;22.90;;;5.90;99.90;;;;;;5055316;28;20211;-66
2021/03/10 00:12:48;;;;;;;25.57;22.93;;;5.90;99.90;;;;;;5055299;28;20171;-66
2021/03/10 00:15:14;;;;;;;24.50;21.37;;;5.90;99.90;;;;;;5055381;28;20379;-66
2021/03/10 00:17:42;;;;;;;24.07;21.70;;;5.80;99.90;;;;;;5053904;28;20192;-66
2021/03/10 00:20:09;;;;;;;25.70;23.10;;;5.80;99.90;;;;;;5053956;28;20525;-66
2021/03/10 00:22:35;;;;;;;24.70;21.77;;;5.80;99.90;;;;;;5053865;28;20398;-66
2021/03/10 00:25:00;;;;;;;22.83;20.63;;;5.80;99.90;;;;;;5054463;28;20895;-66
2021/03/10 00:27:26;;;;;;;24.50;22.10;;;5.80;99.90;;;;;;5055250;28;20172;-66
2021/03/10 00:29:56;;;;;;;26.03;23.37;;;5.70;99.90;;;;;;5054942;28;20196;-66
2021/03/10 00:32:22;;;;;;;23.13;20.80;;;5.80;99.90;;;;;;5054960;28;20174;-66
2021/03/10 00:34:48;;;;;;;24.63;22.13;;;5.70;99.90;;;;;;5053521;28;20827;-66
2021/03/10 00:37:18;;;;;;;24.63;22.00;;;5.70;99.90;;;;;;5053497;28;20498;-66
2021/03/10 00:39:44;;;;;;;25.37;22.03;;;5.70;99.90;;;;;;5053495;28;20426;-66
2021/03/10 00:42:10;;;;;;;26.20;23.40;;;5.70;99.90;;;;;;5036034;28;20431;-66
2021/03/10 00:44:36;;;;;;;27.00;24.20;;;5.70;99.90;;;;;;5054934;28;20399;-66
2021/03/10 00:47:02;;;;;;;30.77;25.37;;;5.70;99.90;;;;;;5054412;28;20971;-66
2021/03/10 00:49:27;;;;;;;27.23;24.40;;;5.70;99.90;;;;;;5054539;28;20160;-66
2021/03/10 00:51:53;;;;;;;28.20;25.07;;;5.70;99.90;;;;;;5053360;28;20164;-66
2021/03/10 00:54:18;;;;;;;26.70;23.87;;;5.70;99.90;;;;;;5054494;28;20614;-66
2021/03/10 00:56:44;;;;;;;25.67;23.07;;;5.70;99.90;;;;;;5054782;28;20279;-66
2021/03/10 00:59:10;;;;;;;26.93;24.17;;;5.70;99.90;;;;;;5046349;28;20177;-66
2021/03/10 01:01:35;;;;;;;28.43;24.47;;;5.70;99.90;;;;;;5054318;28;20628;-66
2021/03/10 01:04:01;;;;;;;28.57;23.40;;;5.70;99.90;;;;;;5054670;28;20168;-66
2021/03/10 01:06:27;;;;;;;27.00;24.30;;;5.60;99.90;;;;;;5054554;28;20160;-66
2021/03/10 01:08:52;;;;;;;25.17;22.47;;;5.70;99.90;;;;;;5054064;28;20161;-66
2021/03/10 01:11:18;;;;;;;25.40;22.80;;;5.70;99.90;;;;;;5054317;28;20538;-66
2021/03/10 01:13:44;;;;;;;27.30;24.40;;;5.60;99.90;;;;;;5054208;28;20165;-66
2021/03/10 01:16:10;;;;;;;26.53;23.77;;;5.60;99.90;;;;;;5053325;28;20216;-66
2021/03/10 01:18:36;;;;;;;29.43;24.00;;;5.60;99.90;;;;;;5054078;28;20392;-66
2021/03/10 01:21:02;;;;;;;26.10;23.40;;;5.60;99.90;;;;;;5053915;28;20583;-66
2021/03/10 01:23:28;;;;;;;26.93;24.03;;;5.60;99.90;;;;;;5054169;28;20467;-66
2021/03/10 01:25:53;;;;;;;26.93;23.70;;;5.50;99.90;;;;;;5053965;28;20538;-66
2021/03/10 01:28:19;;;;;;;25.00;22.37;;;5.50;99.90;;;;;;5053876;28;20223;-66
2021/03/10 01:30:44;;;;;;;33.10;27.50;;;5.50;99.90;;;;;;5052567;28;20158;-66
2021/03/10 01:33:10;;;;;;;59.50;41.53;;;5.40;99.90;;;;;;5041066;28;20185;-66
2021/03/10 01:35:36;;;;;;;74.47;45.77;;;5.40;99.90;;;;;;5033729;28;20615;-65
2021/03/10 01:38:01;;;;;;;62.37;40.33;;;5.40;99.90;;;;;;5033681;28;20157;-66
2021/03/10 01:40:27;;;;;;;63.77;44.27;;;5.40;99.90;;;;;;5033951;28;20392;-66
2021/03/10 01:42:53;;;;;;;57.47;41.27;;;5.40;99.90;;;;;;5033566;28;20252;-66
2021/03/10 01:45:18;;;;;;;51.90;37.90;;;5.40;99.90;;;;;;5033597;28;20520;-66
2021/03/10 01:47:46;;;;;;;55.27;40.17;;;5.40;99.90;;;;;;5033541;28;20227;-66
2021/03/10 01:50:16;;;;;;;47.87;36.87;;;5.40;99.90;;;;;;5032772;28;20177;-66
2021/03/10 01:52:42;;;;;;;47.27;36.93;;;5.40;99.90;;;;;;5033426;28;20407;-66
2021/03/10 01:55:08;;;;;;;34.77;30.60;;;5.40;99.90;;;;;;5032359;28;20396;-66
2021/03/10 01:57:35;;;;;;;38.20;28.73;;;5.40;99.90;;;;;;5033555;28;20726;-66
2021/03/10 02:00:01;;;;;;;30.87;26.90;;;5.50;99.90;;;;;;5053215;28;20501;-66
2021/03/10 02:02:26;;;;;;;29.13;26.03;;;5.50;99.90;;;;;;5053191;28;20452;-66
2021/03/10 02:04:52;;;;;;;29.90;26.00;;;5.50;99.90;;;;;;5053216;28;20486;-66
2021/03/10 02:07:27;;;;;;;28.90;24.87;;;5.60;99.90;;;;;;5038871;28;20657;-66
2021/03/10 02:15:22;;;;;;;29.97;26.80;;;5.60;99.90;;;;;;5131244;27;20562;-65
2021/03/10 02:17:54;;;;;;;27.40;24.50;;;5.60;99.90;;;;;;5131515;27;20410;-65
2021/03/10 02:26:15;;;;;;;28.07;25.37;;;5.70;99.90;;;;;;5131466;27;20538;-65
2021/03/10 02:28:42;;;;;;;24.70;22.20;;;5.70;99.90;;;;;;5130178;28;20396;-65
2021/03/10 02:31:11;;;;;;;25.17;22.57;;;5.60;99.90;;;;;;5131186;27;20396;-65
2021/03/10 02:33:38;;;;;;;25.67;22.97;;;5.60;99.90;;;;;;5130223;28;20494;-65
2021/03/10 02:36:14;;;;;;;26.60;23.70;;;5.70;99.90;;;;;;5131205;27;20513;-65
2021/03/10 02:38:43;;;;;;;28.23;24.07;;;5.70;99.90;;;;;;5131139;27;20415;-65
2021/03/10 02:41:10;;;;;;;27.40;24.70;;;5.70;99.90;;;;;;5117976;27;20404;-65
2021/03/10 02:43:38;;;;;;;24.53;21.90;;;5.70;99.90;;;;;;5110416;28;20405;-65
2021/03/10 02:46:05;;;;;;;26.67;23.90;;;5.70;99.90;;;;;;5109308;28;20428;-65
2021/03/10 02:48:32;;;;;;;26.00;23.30;;;5.70;99.90;;;;;;5110410;28;20429;-65
2021/03/10 02:50:59;;;;;;;23.83;21.43;;;5.70;99.90;;;;;;5109258;28;20389;-65
2021/03/10 02:53:25;;;;;;;26.83;24.03;;;5.70;99.90;;;;;;5110346;28;20389;-65
2021/03/10 02:55:51;;;;;;;25.73;23.17;;;5.70;99.90;;;;;;5110324;28;20393;-65
2021/03/10 02:58:16;;;;;;;26.67;23.97;;;5.70;99.90;;;;;;5110606;28;20312;-65
2021/03/10 03:00:42;;;;;;;24.40;21.90;;;5.70;99.90;;;;;;5110182;28;20758;-65
2021/03/10 03:03:08;;;;;;;24.80;22.20;;;5.70;99.90;;;;;;5110244;28;20159;-67
2021/03/10 03:05:34;;;;;;;24.47;22.00;;;5.70;99.90;;;;;;5109137;28;20609;-67
2021/03/10 03:08:01;;;;;;;24.47;21.83;;;5.70;99.90;;;;;;5110688;28;20151;-64
2021/03/10 03:10:31;;;;;;;24.83;22.27;;;5.70;99.90;;;;;;5110191;28;20454;-65
2021/03/10 03:12:57;;;;;;;26.27;23.50;;;5.60;99.90;;;;;;5109901;28;20480;-65
2021/03/10 03:15:24;;;;;;;27.00;23.00;;;5.60;99.90;;;;;;5123683;28;20447;-66
2021/03/10 03:17:51;;;;;;;26.00;23.30;;;5.60;99.90;;;;;;5129083;28;20789;-66
2021/03/10 03:20:19;;;;;;;27.00;22.97;;;5.70;99.90;;;;;;5130993;27;20401;-67
2021/03/10 03:22:48;;;;;;;27.73;22.97;;;5.60;99.90;;;;;;5129197;28;20409;-67
2021/03/10 03:25:16;;;;;;;24.00;21.50;;;5.60;99.90;;;;;;5130174;27;20458;-66
2021/03/10 03:27:44;;;;;;;26.97;24.10;;;5.60;99.90;;;;;;5130131;27;20782;-67
2021/03/10 03:30:10;;;;;;;28.90;23.90;;;5.60;99.90;;;;;;5130134;27;20442;-67
2021/03/10 03:32:37;;;;;;;25.80;22.90;;;5.50;99.90;;;;;;5129189;27;20415;-67
2021/03/10 03:35:05;;;;;;;28.43;23.33;;;5.50;99.90;;;;;;5128600;27;20738;-67
2021/03/10 03:37:30;;;;;;;27.20;23.50;;;5.50;99.90;;;;;;5116336;28;20984;-67
2021/03/10 03:39:57;;;;;;;27.97;23.40;;;5.40;99.90;;;;;;5116250;28;20397;-67
2021/03/10 03:42:22;;;;;;;27.67;24.77;;;5.30;99.90;;;;;;5116225;28;20534;-67
2021/03/10 03:44:48;;;;;;;27.60;24.70;;;5.30;99.90;;;;;;5116212;28;20448;-67
2021/03/10 03:47:15;;;;;;;31.27;26.70;;;5.20;99.90;;;;;;5116361;28;20201;-67
2021/03/10 03:49:42;;;;;;;31.90;25.83;;;5.10;99.90;;;;;;5115376;28;20223;-67
2021/03/10 03:52:08;;;;;;;31.00;26.13;;;5.10;99.90;;;;;;5115989;28;20492;-67
2021/03/10 03:54:34;;;;;;;29.40;26.27;;;5.00;99.90;;;;;;5114775;28;20415;-67
2021/03/10 03:57:00;;;;;;;30.73;27.30;;;5.00;99.90;;;;;;5116119;28;20404;-67
2021/03/10 03:59:25;;;;;;;28.93;25.60;;;4.90;99.90;;;;;;5099570;28;20909;-67
2021/03/10 04:01:51;;;;;;;30.80;26.97;;;4.90;99.90;;;;;;5095578;28;20528;-67
2021/03/10 04:04:16;;;;;;;31.23;27.97;;;4.80;99.90;;;;;;5095929;28;20198;-67
2021/03/10 04:06:49;;;;;;;36.00;28.93;;;4.80;99.90;;;;;;5095901;28;20179;-67
2021/03/10 04:09:15;;;;;;;31.80;28.40;;;4.70;99.90;;;;;;5095188;28;20169;-67
2021/03/10 04:11:45;;;;;;;30.87;27.03;;;4.70;99.90;;;;;;5095427;28;20392;-67
2021/03/10 04:14:11;;;;;;;31.80;28.40;;;4.70;99.90;;;;;;5093899;28;20810;-67
2021/03/10 04:16:37;;;;;;;31.00;27.63;;;4.60;99.90;;;;;;5095218;28;20422;-67
2021/03/10 04:19:03;;;;;;;30.17;26.50;;;4.60;99.90;;;;;;5095295;28;20432;-67
2021/03/10 04:21:29;;;;;;;32.73;29.13;;;4.60;99.90;;;;;;5094922;28;20187;-67
2021/03/10 04:23:55;;;;;;;33.33;27.53;;;4.60;99.90;;;;;;5095275;28;21001;-67
2021/03/10 04:26:20;;;;;;;30.07;26.83;;;4.60;99.90;;;;;;5094965;28;20163;-67
2021/03/10 04:28:46;;;;;;;32.43;29.00;;;4.60;99.90;;;;;;5095489;28;20261;-67
2021/03/10 04:31:11;;;;;;;33.57;28.30;;;4.60;99.90;;;;;;5093628;28;20574;-67
2021/03/10 04:33:37;;;;;;;29.73;26.43;;;4.60;99.90;;;;;;5094851;28;20199;-67
2021/03/10 04:36:03;;;;;;;30.40;26.37;;;4.60;99.90;;;;;;5094650;28;20230;-67
2021/03/10 04:38:29;;;;;;;33.63;29.20;;;4.60;99.90;;;;;;5094751;28;20156;-67
2021/03/10 04:40:54;;;;;;;31.87;27.47;;;4.60;99.90;;;;;;5095407;28;20254;-67
2021/03/10 04:43:20;;;;;;;30.57;27.30;;;4.60;99.90;;;;;;5094432;28;20545;-67
2021/03/10 04:45:45;;;;;;;31.40;26.67;;;4.60;99.90;;;;;;5094471;28;20206;-67
2021/03/10 04:48:11;;;;;;;32.87;26.83;;;4.60;99.90;;;;;;5093559;28;20167;-67
2021/03/10 04:50:37;;;;;;;27.50;24.57;;;4.60;99.90;;;;;;5094421;28;20205;-67
2021/03/10 04:53:02;;;;;;;31.00;25.03;;;4.60;99.90;;;;;;5094409;28;20191;-67
2021/03/10 04:55:28;;;;;;;30.53;26.03;;;4.60;99.90;;;;;;5094233;28;20221;-66
2021/03/10 04:57:53;;;;;;;28.73;25.73;;;4.60;99.90;;;;;;5094835;28;20167;-67
2021/03/10 05:00:19;;;;;;;28.47;25.40;;;4.60;99.90;;;;;;5094352;28;20174;-67
2021/03/10 05:02:45;;;;;;;27.03;24.17;;;4.60;99.90;;;;;;5094272;28;20167;-67
2021/03/10 05:05:11;;;;;;;28.30;25.23;;;4.70;99.90;;;;;;5094146;28;20800;-67
2021/03/10 05:07:37;;;;;;;28.43;23.40;;;4.70;99.90;;;;;;5094126;28;20592;-67
2021/03/10 05:10:04;;;;;;;26.30;23.57;;;4.70;99.90;;;;;;5094455;28;20472;-66
2021/03/10 05:12:30;;;;;;;28.70;25.63;;;4.70;99.90;;;;;;5094060;28;20216;-67
2021/03/10 05:14:57;;;;;;;29.77;26.57;;;4.70;99.90;;;;;;5114001;28;20442;-67
2021/03/10 05:17:25;;;;;;;25.57;22.97;;;4.80;99.90;;;;;;5114394;28;20427;-67
2021/03/10 05:19:51;;;;;;;26.70;23.33;;;4.80;99.90;;;;;;5114461;28;20389;-67
2021/03/10 05:22:17;;;;;;;25.57;23.03;;;4.80;99.90;;;;;;5114322;28;20397;-67
2021/03/10 05:24:42;;;;;;;27.57;23.53;;;4.80;99.90;;;;;;5114005;28;20455;-67
2021/03/10 05:27:08;;;;;;;25.27;22.73;;;4.80;99.90;;;;;;5114150;28;20163;-67
2021/03/10 05:29:33;;;;;;;27.37;24.47;;;4.80;99.90;;;;;;5114044;28;20174;-67
2021/03/10 05:31:59;;;;;;;22.50;20.30;;;4.70;99.90;;;;;;5113426;28;20540;-67
2021/03/10 05:34:24;;;;;;;24.70;22.20;;;4.70;99.90;;;;;;5114319;28;20174;-67
2021/03/10 05:36:50;;;;;;;26.00;22.93;;;4.60;99.90;;;;;;5114183;28;20194;-67
2021/03/10 05:39:15;;;;;;;25.20;22.73;;;4.60;99.90;;;;;;5112836;28;20607;-67
2021/03/10 05:41:42;;;;;;;27.50;23.73;;;4.60;99.90;;;;;;5113789;27;20158;-67
2021/03/10 05:44:08;;;;;;;26.63;23.80;;;4.50;99.90;;;;;;5112762;28;20220;-66
2021/03/10 05:46:34;;;;;;;26.23;23.53;;;4.50;99.90;;;;;;5112247;28;20446;-67
2021/03/10 05:48:59;;;;;;;24.30;21.90;;;4.50;99.90;;;;;;5113550;28;20404;-66
2021/03/10 05:51:25;;;;;;;27.27;24.57;;;4.50;99.90;;;;;;5113875;28;20152;-67
2021/03/10 05:53:52;;;;;;;24.60;22.13;;;4.50;99.90;;;;;;5113587;28;20166;-66
2021/03/10 05:56:17;;;;;;;26.73;23.87;;;4.50;99.90;;;;;;5113782;28;20162;-67
2021/03/10 05:58:54;;;;;;;28.27;22.40;;;4.60;99.90;;;;;;5103190;28;20408;-67
2021/03/10 06:01:19;;;;;;;27.83;24.80;;;4.70;99.90;;;;;;5092305;28;20220;-67
2021/03/10 06:03:54;;;;;;;28.20;23.70;;;4.70;99.90;;;;;;5093905;28;20437;-67
2021/03/10 06:06:20;;;;;;;25.93;22.27;;;4.80;99.90;;;;;;5093283;28;20173;-67
2021/03/10 06:08:45;;;;;;;26.30;23.30;;;4.80;99.90;;;;;;5092338;28;20390;-67
2021/03/10 06:11:22;;;;;;;25.90;23.40;;;4.80;99.90;;;;;;5093403;28;20162;-67
2021/03/10 06:13:47;;;;;;;23.57;21.30;;;4.90;99.90;;;;;;5093203;28;20143;-67
2021/03/10 06:16:21;;;;;;;27.10;24.10;;;4.90;99.90;;;;;;5093245;28;20438;-67
2021/03/10 06:18:48;;;;;;;28.43;22.93;;;4.90;99.90;;;;;;5092071;28;20194;-67
2021/03/10 06:21:15;;;;;;;26.20;23.40;;;5.00;99.90;;;;;;5093627;28;20428;-67
2021/03/10 06:23:59;;;;;;;24.93;22.27;;;5.00;99.90;;;;;;5092836;28;20436;-67
2021/03/10 06:26:26;;;;;;;26.30;23.20;;;5.10;99.90;;;;;;5091710;28;20397;-67
2021/03/10 06:28:53;;;;;;;25.37;22.30;;;5.10;99.90;;;;;;5093139;28;20863;-67
2021/03/10 06:31:21;;;;;;;26.83;23.73;;;5.20;99.90;;;;;;5093043;28;20984;-67
2021/03/10 06:36:48;;;;;;;24.40;21.77;;;5.20;99.90;;;;;;5110668;27;20954;-66
2021/03/10 06:39:24;;;;;;;26.37;23.67;;;5.30;99.90;;;;;;5095828;28;20419;-67
2021/03/10 06:41:49;;;;;;;26.63;23.83;;;5.40;99.90;;;;;;5090304;28;20386;-67
2021/03/10 06:46:59;;;;;;;26.53;23.83;;;5.40;99.90;;;;;;5130990;27;21090;-66
2021/03/10 06:49:27;;;;;;;27.17;24.13;;;5.50;99.90;;;;;;5131256;27;20440;-67
2021/03/10 06:51:57;;;;;;;26.27;23.57;;;5.60;99.90;;;;;;5130960;27;20387;-67
2021/03/10 06:54:24;;;;;;;25.07;22.43;;;5.70;99.90;;;;;;5131442;27;20424;-66
2021/03/10 06:57:07;;;;;;;27.47;24.57;;;5.70;99.90;;;;;;5112491;27;20407;-66
2021/03/10 06:59:41;;;;;;;26.17;23.27;;;5.80;99.90;;;;;;5110333;28;20962;-66
2021/03/10 07:04:55;;;;;;;25.10;22.53;;;5.90;99.90;;;;;;5110769;27;20502;-66
2021/03/10 07:07:22;;;;;;;28.40;24.10;;;5.90;99.90;;;;;;5110714;28;20468;-66
2021/03/10 07:09:47;;;;;;;25.43;22.80;;;6.00;99.90;;;;;;5111004;28;20430;-67
2021/03/10 07:12:16;;;;;;;25.20;22.60;;;6.00;99.90;;;;;;5105627;28;20809;-66
2021/03/10 07:14:42;;;;;;;25.10;22.50;;;6.10;99.90;;;;;;5090383;28;20158;-66
2021/03/10 07:17:09;;;;;;;26.53;23.47;;;6.10;99.90;;;;;;5088762;28;20393;-65
2021/03/10 07:19:37;;;;;;;23.80;21.40;;;6.20;99.90;;;;;;5089934;28;20399;-66
2021/03/10 07:24:59;;;;;;;24.47;21.97;;;6.20;99.90;;;;;;5131305;27;20507;-66
2021/03/10 07:27:25;;;;;;;27.83;24.40;;;6.30;99.90;;;;;;5131287;27;20462;-66
2021/03/10 07:29:59;;;;;;;26.93;24.10;;;6.30;99.90;;;;;;5120658;27;20935;-66
2021/03/10 07:32:26;;;;;;;29.17;25.93;;;6.30;99.90;;;;;;5110595;28;20864;-66
2021/03/10 07:35:09;;;;;;;30.27;26.63;;;6.40;99.90;;;;;;5109308;28;20754;-66
2021/03/10 07:37:36;;;;;;;33.03;27.50;;;6.50;99.90;;;;;;5110771;28;20388;-66
2021/03/10 07:40:07;;;;;;;30.53;27.33;;;6.50;99.90;;;;;;5110586;28;20857;-66
2021/03/10 07:42:32;;;;;;;30.43;27.17;;;6.60;99.90;;;;;;5110681;28;20385;-66
2021/03/10 07:44:58;;;;;;;28.23;25.23;;;6.70;99.90;;;;;;5110351;28;20797;-66
2021/03/10 07:47:24;;;;;;;32.10;28.60;;;6.70;99.90;;;;;;5110863;28;20754;-66
2021/03/10 07:49:58;;;;;;;28.47;25.37;;;6.80;99.90;;;;;;5110531;28;20437;-66
2021/03/10 07:52:27;;;;;;;27.97;25.07;;;6.80;99.90;;;;;;5110137;28;20771;-66
2021/03/10 07:54:59;;;;;;;28.77;25.70;;;6.80;99.90;;;;;;5108820;28;20407;-66
2021/03/10 07:57:25;;;;;;;29.77;26.57;;;6.90;99.90;;;;;;5109147;28;20393;-66
2021/03/10 08:02:39;;;;;;;29.93;25.07;;;6.90;99.90;;;;;;5110901;27;20502;-66
2021/03/10 08:05:05;;;;;;;29.87;26.77;;;6.90;99.90;;;;;;5089295;28;20405;-66
2021/03/10 08:07:32;;;;;;;30.70;25.93;;;7.00;99.90;;;;;;5090284;28;20927;-66
2021/03/10 08:09:59;;;;;;;28.50;25.37;;;7.00;99.90;;;;;;5089829;28;20874;-66
2021/03/10 08:12:34;;;;;;;33.53;26.23;;;7.10;99.90;;;;;;5090174;28;20397;-66
2021/03/10 08:15:00;;;;;;;26.77;22.90;;;7.00;99.90;;;;;;5089315;28;20446;-66
2021/03/10 08:17:28;;;;;;;31.07;27.70;;;7.00;99.90;;;;;;5090512;28;20381;-66
2021/03/10 08:19:56;;;;;;;33.03;28.73;;;7.00;99.90;;;;;;5090512;28;20189;-66
2021/03/10 08:22:24;;;;;;;37.03;28.67;;;6.90;99.90;;;;;;5088563;28;20805;-66
2021/03/10 08:24:52;;;;;;;31.80;28.10;;;6.90;99.90;;;;;;5088514;28;20838;-66
2021/03/10 08:30:08;;;;;;;36.13;31.83;;;6.90;99.90;;;;;;5110899;27;20509;-65
2021/03/10 08:32:34;;;;;;;37.60;32.27;;;6.90;99.90;;;;;;5110700;28;20380;-65
2021/03/10 08:38:02;;;;;;;42.67;37.93;;;6.90;99.90;;;;;;5101102;27;20564;-66
2021/03/10 08:40:30;;;;;;;44.80;39.63;;;6.90;99.90;;;;;;5090224;28;20397;-66
2021/03/10 08:42:57;;;;;;;42.00;37.50;;;6.80;99.90;;;;;;5090062;28;20896;-66
2021/03/10 08:48:08;;;;;;;33.97;30.50;;;6.90;99.90;;;;;;5131367;27;20514;-66
2021/03/10 08:50:36;;;;;;;32.83;28.97;;;7.00;99.90;;;;;;5131089;27;20448;-66
2021/03/10 08:53:04;;;;;;;33.60;27.47;;;7.00;99.90;;;;;;5131283;27;20882;-66
2021/03/10 08:55:30;;;;;;;36.93;27.67;;;7.10;99.90;;;;;;5114820;27;20954;-66
2021/03/10 08:57:58;;;;;;;30.73;25.93;;;7.20;99.90;;;;;;5113980;28;20407;-66
2021/03/10 09:00:27;;;;;;;33.97;25.87;;;7.20;99.90;;;;;;5130752;27;20399;-66
2021/03/10 09:02:53;;;;;;;30.40;25.20;;;7.30;99.90;;;;;;5131251;27;20394;-66
2021/03/10 09:05:28;;;;;;;33.37;26.53;;;7.40;99.90;;;;;;5130847;27;20388;-66
2021/03/10 09:07:54;;;;;;;32.73;27.37;;;7.30;99.90;;;;;;5130611;27;20447;-66
2021/03/10 09:10:21;;;;;;;33.93;24.53;;;7.30;99.90;;;;;;5130914;27;20449;-66
2021/03/10 09:12:49;;;;;;;28.37;24.57;;;7.40;99.90;;;;;;5130111;27;20746;-66
2021/03/10 09:15:17;;;;;;;30.90;25.27;;;7.40;99.90;;;;;;5150354;27;20906;-66
2021/03/10 09:17:43;;;;;;;29.80;23.87;;;7.50;99.90;;;;;;5151618;27;20452;-66
2021/03/10 09:20:28;;;;;;;27.50;24.00;;;7.60;99.90;;;;;;5151282;27;20804;-67
2021/03/10 09:22:54;;;;;;;30.97;23.77;;;7.60;99.90;;;;;;5151533;27;20438;-66
2021/03/10 09:25:23;;;;;;;32.47;25.40;;;7.70;99.90;;;;;;5151049;27;20400;-66
2021/03/10 09:27:48;;;;;;;34.83;25.70;;;7.70;99.90;;;;;;5146806;27;20444;-66
2021/03/10 09:30:30;;;;;;;32.00;25.80;;;7.80;99.90;;;;;;5110068;27;20754;-66
2021/03/10 09:32:56;;;;;;;35.40;28.20;;;7.90;99.90;;;;;;5108914;28;20153;-66
2021/03/10 09:35:31;;;;;;;29.30;23.60;;;8.00;99.90;;;;;;5108923;28;20391;-66
2021/03/10 09:38:02;;;;;;;35.20;26.57;;;8.10;99.90;;;;;;5109306;28;20403;-66
2021/03/10 09:40:45;;;;;;;33.60;28.57;;;8.00;99.90;;;;;;5108160;28;20404;-66
2021/03/10 09:43:15;;;;;;;34.57;28.17;;;8.10;99.90;;;;;;5108697;28;20386;-66
2021/03/10 09:45:42;;;;;;;38.40;29.10;;;8.20;99.90;;;;;;5108825;28;20514;-67
2021/03/10 09:48:11;;;;;;;35.63;28.00;;;8.30;99.90;;;;;;5109545;28;20406;-66
2021/03/10 09:50:43;;;;;;;38.07;28.90;;;8.40;99.90;;;;;;5110075;28;20394;-66
2021/03/10 09:55:52;;;;;;;38.13;26.87;;;8.60;99.90;;;;;;5131304;27;20511;-66
2021/03/10 09:58:18;;;;;;;34.30;27.83;;;8.70;99.90;;;;;;5131205;28;20405;-66
2021/03/10 10:00:44;;;;;;;34.67;28.40;;;8.70;99.90;;;;;;5131094;28;20470;-66
2021/03/10 10:03:11;;;;;;;34.10;26.80;;;8.60;99.90;;;;;;5129352;28;20165;-65
2021/03/10 10:05:39;;;;;;;35.73;28.10;;;8.60;99.90;;;;;;5131173;27;20397;-66
2021/03/10 10:08:07;;;;;;;39.53;29.90;;;8.70;99.90;;;;;;5130945;27;20895;-66
2021/03/10 10:10:34;;;;;;;39.30;29.70;;;8.90;99.90;;;;;;5126105;28;20418;-66
2021/03/10 10:13:00;;;;;;;36.43;26.23;;;9.00;99.90;;;;;;5126373;27;20402;-66
2021/03/10 10:15:30;;;;;;;34.30;28.17;;;9.20;99.90;;;;;;5113287;27;20494;-66
2021/03/10 10:17:58;;;;;;;36.10;27.33;;;9.40;99.90;;;;;;5109365;28;20503;-66
2021/03/10 10:20:28;;;;;;;41.67;30.20;;;9.50;99.90;;;;;;5127514;27;20934;-66
2021/03/10 10:22:54;;;;;;;33.87;26.57;;;9.60;99.90;;;;;;5109160;28;20445;-66
2021/03/10 10:25:20;;;;;;;35.43;29.07;;;9.70;99.90;;;;;;5125205;28;20509;-66
2021/03/10 10:27:47;;;;;;;36.90;28.77;;;9.80;99.90;;;;;;5126454;28;20565;-66
2021/03/10 10:30:15;;;;;;;34.97;27.90;;;9.90;99.90;;;;;;5124157;28;20174;-66
2021/03/10 10:32:42;;;;;;;36.00;27.73;;;9.80;99.90;;;;;;5129064;28;20415;-66
2021/03/10 10:35:09;;;;;;;36.53;28.20;;;9.90;99.90;;;;;;5130797;27;20530;-67
2021/03/10 10:37:35;;;;;;;33.97;26.60;;;10.00;99.90;;;;;;5113944;27;20814;-66
2021/03/10 10:40:00;;;;;;;33.37;27.30;;;10.10;99.90;;;;;;5109724;28;20487;-66
2021/03/10 10:42:26;;;;;;;37.23;28.33;;;10.20;99.90;;;;;;5109955;28;20630;-66
2021/03/10 10:44:52;;;;;;;31.97;26.03;;;10.30;99.90;;;;;;5109807;28;20212;-66
2021/03/10 10:47:19;;;;;;;29.33;25.13;;;10.30;99.90;;;;;;5108806;28;20458;-66
2021/03/10 10:49:44;;;;;;;34.13;27.23;;;10.50;99.90;;;;;;5109920;28;20756;-66
2021/03/10 10:52:10;;;;;;;30.47;24.70;;;10.50;99.90;;;;;;5109680;28;20408;-66
2021/03/10 10:54:36;;;;;;;29.50;23.13;;;10.50;99.90;;;;;;5115350;27;20711;-66
2021/03/10 10:57:02;;;;;;;30.33;25.53;;;10.40;99.90;;;;;;5128710;28;20162;-66
2021/03/10 10:59:27;;;;;;;36.63;27.47;;;10.30;99.90;;;;;;5130259;27;20392;-66
2021/03/10 11:01:53;;;;;;;29.07;23.37;;;10.20;99.90;;;;;;5128964;27;20146;-66
2021/03/10 11:04:18;;;;;;;29.23;23.50;;;10.20;99.90;;;;;;5129156;27;20203;-66
2021/03/10 11:06:44;;;;;;;29.17;24.97;;;10.30;99.90;;;;;;5118192;28;20174;-66
2021/03/10 11:09:10;;;;;;;29.17;22.70;;;10.40;99.90;;;;;;5116108;28;20250;-66
2021/03/10 11:11:35;;;;;;;27.43;22.63;;;10.50;99.90;;;;;;5099038;28;20627;-66
2021/03/10 11:14:02;;;;;;;27.00;22.90;;;10.40;99.90;;;;;;5095561;28;20609;-66
2021/03/10 11:16:27;;;;;;;25.37;21.77;;;10.50;99.90;;;;;;5095660;28;20151;-66
2021/03/10 11:18:53;;;;;;;29.27;22.83;;;10.50;99.90;;;;;;5095402;28;20409;-65
2021/03/10 11:21:19;;;;;;;28.93;22.73;;;10.40;99.90;;;;;;5094957;28;20186;-66
2021/03/10 11:23:50;;;;;;;28.20;23.73;;;10.30;99.90;;;;;;5095619;28;20456;-65
2021/03/10 11:26:18;;;;;;;28.03;23.53;;;10.40;99.90;;;;;;5102759;28;20177;-65
2021/03/10 11:28:44;;;;;;;29.43;24.20;;;10.50;99.90;;;;;;5096104;28;20425;-65
2021/03/10 11:31:10;;;;;;;28.97;22.80;;;10.50;99.90;;;;;;5095711;28;20404;-65
2021/03/10 11:33:36;;;;;;;26.23;21.93;;;10.50;99.90;;;;;;5095357;28;20167;-65
2021/03/10 11:36:03;;;;;;;28.03;22.37;;;10.60;99.90;;;;;;5095401;28;20400;-66
2021/03/10 11:38:29;;;;;;;24.33;20.37;;;10.70;99.90;;;;;;5095158;28;20156;-65
2021/03/10 11:40:55;;;;;;;28.07;19.97;;;10.70;99.90;;;;;;5093101;28;20417;-65
2021/03/10 11:43:21;;;;;;;24.53;20.30;;;10.60;99.90;;;;;;5098693;28;20189;-65
2021/03/10 11:45:47;;;;;;;26.47;21.40;;;10.70;99.90;;;;;;5113107;28;20924;-65
2021/03/10 11:48:12;;;;;;;25.83;22.10;;;10.80;99.90;;;;;;5114919;28;20400;-65
2021/03/10 11:50:38;;;;;;;24.53;19.17;;;10.80;99.90;;;;;;5114686;28;20161;-66
2021/03/10 11:53:04;;;;;;;23.50;18.87;;;10.80;99.90;;;;;;5115602;28;20154;-66
2021/03/10 11:55:30;;;;;;;21.10;17.80;;;10.80;99.90;;;;;;5115167;28;20611;-65
2021/03/10 11:57:56;;;;;;;21.90;18.23;;;10.70;99.90;;;;;;5111714;27;20408;-65
2021/03/10 12:00:22;;;;;;;21.90;17.80;;;10.70;99.90;;;;;;5094023;28;20389;-66
2021/03/10 12:02:48;;;;;;;22.90;18.80;;;10.80;99.90;;;;;;5095736;28;20306;-65
2021/03/10 12:05:14;;;;;;;21.43;18.07;;;10.80;99.90;;;;;;5095395;28;20757;-66
2021/03/10 12:07:39;;;;;;;23.93;18.30;;;10.80;99.90;;;;;;5094842;28;20171;-66
2021/03/10 12:10:05;;;;;;;22.93;18.40;;;10.90;99.90;;;;;;5094925;28;20757;-65
2021/03/10 12:12:31;;;;;;;21.40;17.83;;;11.00;99.90;;;;;;5095165;28;20165;-65
2021/03/10 12:14:56;;;;;;;23.13;17.43;;;11.20;99.90;;;;;;5094729;28;20532;-65
2021/03/10 12:17:22;;;;;;;24.40;19.63;;;11.20;99.90;;;;;;5093935;28;20151;-66
2021/03/10 12:19:47;;;;;;;17.97;14.93;;;11.20;99.90;;;;;;5095194;28;20170;-65
2021/03/10 12:22:13;;;;;;;17.43;14.10;;;11.20;99.90;;;;;;5093283;28;20178;-65
2021/03/10 12:24:39;;;;;;;19.03;14.70;;;11.20;99.90;;;;;;5095252;28;20268;-66
2021/03/10 12:27:07;;;;;;;17.77;15.20;;;11.10;99.90;;;;;;5094483;28;20178;-66
2021/03/10 12:29:34;;;;;;;19.37;15.97;;;11.10;99.90;;;;;;5105068;28;20211;-66
2021/03/10 12:32:00;;;;;;;18.23;16.00;;;11.20;99.90;;;;;;5105661;28;20401;-66
2021/03/10 12:34:26;;;;;;;22.13;16.63;;;11.30;99.90;;;;;;5093813;28;20455;-66
2021/03/10 12:36:51;;;;;;;23.07;18.07;;;11.40;99.90;;;;;;5098724;28;20167;-65
2021/03/10 12:39:17;;;;;;;18.77;16.17;;;11.40;99.90;;;;;;5113277;28;20535;-65
2021/03/10 12:41:43;;;;;;;19.30;14.93;;;11.40;99.90;;;;;;5113815;28;20158;-65
2021/03/10 12:44:08;;;;;;;16.97;13.80;;;11.50;99.90;;;;;;5112967;27;20506;-66
2021/03/10 12:46:34;;;;;;;19.50;15.77;;;11.60;99.90;;;;;;5114223;27;20285;-66
2021/03/10 12:49:00;;;;;;;19.37;15.37;;;11.70;99.90;;;;;;5114484;28;20411;-66
2021/03/10 12:51:26;;;;;;;16.40;13.90;;;11.80;99.90;;;;;;5114397;28;20197;-66
2021/03/10 12:53:51;;;;;;;17.30;14.57;;;12.00;99.90;;;;;;5116791;27;20458;-66
2021/03/10 12:56:17;;;;;;;20.50;16.07;;;11.90;99.90;;;;;;5134656;27;20157;-66
2021/03/10 12:58:42;;;;;;;20.73;15.80;;;11.80;99.90;;;;;;5114496;27;20546;-65
2021/03/10 13:01:08;;;;;;;21.03;17.17;;;11.70;99.90;;;;;;5093770;28;20154;-66
2021/03/10 13:03:34;;;;;;;20.20;16.80;;;11.80;99.90;;;;;;5093794;28;20559;-66
2021/03/10 13:05:59;;;;;;;18.23;15.23;;;11.90;99.90;;;;;;5093744;28;20151;-66
2021/03/10 13:08:25;;;;;;;20.47;15.37;;;12.00;99.90;;;;;;5093756;28;20212;-66
2021/03/10 13:10:50;;;;;;;20.00;15.10;;;12.00;99.90;;;;;;5112767;28;20531;-65